Etusivu
METAR-TAF:

METAR-TAF

Lentoasemat :

Buenos Aires, Argentiina

Leveyspiiri: 34-34S, Pituuspiiri: 058-25W, korkeus merenpinnasta: 6 m

Tämänhetkinen sää

Tämä raportti tehtiin 51 minuuttia sitten, kello 21.00 UTC
Tuuli 9 kn pohjoisen/luoteesta
Lämpötila 28°C
Kosteus 45%
Ilmanpaine 1010 hPa
Näkyvyys 10 km tai enemmän
ei pilviä alle 1500 m:ssä eikä cumulonimbus-pilviä

METAR: SABE 202100Z 33009KT CAVOK 28/15 Q1010 NOSIG

Aika: 18:51 (21:51 UTC)

Sääennuste

Tämä raportti tehtiin 4 tuntia ja 51 minuuttia sitten, kello 17.00 UTC
Ennuste voimassa 20. päivästä klo 18 UTC - 21. päivään klo 18 UTC
Tuuli 10 kn pohjoisesta, vaihdellen pohjoisen/luoteen ja pohjoisen/koillisen välillä
Näkyvyys 10 km tai enemmän
ei pilviä alle 1500 m:ssä eikä cumulonimbus-pilviä

TAF: SABE 201700Z 2018/2118 36010KT 340V020 CAVOK TX29/2118Z TN20/2110Z

Säähavainnot ja -ennusteet yli 4000 lentoasemalta (METAR- ja TAF-raportit).

Käytössä olevat sääasemat on merkitty karttaan keltaisilla ja punaisilla pisteillä.

Aseta hiiri pisteen päälle nähdäksesi sääaseman nimen.

Klikkaa sitten nähdäksesi säähavainnot ja -ennusteet.

Kartan vaihtaminen: klikkaa mustalla rastilla varustettuja vihreitä pisteitä, niin voit zoomata sisään; viivalla varustettua vihreää pistettä, niin voit zoomata ulos tai vihreitä nuolia, niin pääset viereisille kartoille.


METAR-TAF: